createdAt,value
2018-07-12T00:01:56.655Z,18.50
2018-07-12T00:04:24.017Z,14.70
2018-07-12T00:06:52.441Z,17.87
2018-07-12T00:09:19.813Z,16.87
2018-07-12T00:11:47.267Z,14.37
2018-07-12T00:14:14.625Z,17.17
2018-07-12T00:16:42.028Z,17.97
2018-07-12T00:19:09.393Z,21.63
2018-07-12T00:21:36.770Z,20.93
2018-07-12T00:24:04.131Z,16.87
2018-07-12T00:26:31.781Z,20.77
2018-07-12T00:28:59.175Z,17.03
2018-07-12T00:31:26.562Z,19.30
2018-07-12T00:33:53.971Z,16.23
2018-07-12T00:36:21.374Z,18.20
2018-07-12T00:38:48.773Z,15.83
2018-07-12T00:41:16.168Z,20.20
2018-07-12T00:43:43.830Z,19.00
2018-07-12T00:46:11.478Z,14.20
2018-07-12T00:48:38.865Z,15.93
2018-07-12T00:51:06.264Z,21.53
2018-07-12T00:53:33.680Z,23.13
2018-07-12T00:56:01.054Z,17.70
2018-07-12T00:58:28.435Z,19.27
2018-07-12T01:00:55.921Z,20.80
2018-07-12T01:03:23.333Z,15.00
2018-07-12T01:05:50.812Z,15.13
2018-07-12T01:08:18.303Z,13.60
2018-07-12T01:10:45.874Z,15.53
2018-07-12T01:13:13.279Z,17.77
2018-07-12T01:15:40.656Z,16.47
2018-07-12T01:18:08.050Z,18.33
2018-07-12T01:20:35.423Z,15.10
2018-07-12T01:23:02.850Z,21.30
2018-07-12T01:25:30.200Z,15.20
2018-07-12T01:27:57.590Z,19.57
2018-07-12T01:30:25.066Z,14.50
2018-07-12T01:32:52.516Z,16.13
2018-07-12T01:35:20.129Z,16.57
2018-07-12T01:37:47.783Z,16.23
2018-07-12T01:40:15.159Z,14.77
2018-07-12T01:42:42.778Z,13.47
2018-07-12T01:45:10.165Z,18.57
2018-07-12T01:47:37.553Z,13.60
2018-07-12T01:50:04.922Z,14.67
2018-07-12T01:52:32.297Z,16.87
2018-07-12T01:54:59.681Z,13.93
2018-07-12T01:57:27.046Z,13.60
2018-07-12T01:59:54.436Z,17.20
2018-07-12T02:02:21.810Z,18.37
2018-07-12T02:04:49.204Z,20.00
2018-07-12T02:07:16.569Z,18.87
2018-07-12T02:09:43.985Z,17.47
2018-07-12T02:12:11.618Z,16.63
2018-07-12T02:14:39.032Z,17.87
2018-07-12T02:17:06.419Z,19.03
2018-07-12T02:19:33.811Z,21.27
2018-07-12T02:22:01.181Z,16.37
2018-07-12T02:24:28.593Z,15.40
2018-07-12T02:26:56.009Z,17.17
2018-07-12T02:29:23.402Z,17.37
2018-07-12T02:31:50.829Z,16.87
2018-07-12T02:34:18.308Z,20.77
2018-07-12T02:36:45.703Z,17.93
2018-07-12T02:39:13.056Z,21.63
2018-07-12T02:41:40.446Z,24.13
2018-07-12T02:44:07.847Z,23.27
2018-07-12T02:46:35.498Z,23.97
2018-07-12T02:49:02.841Z,22.87
2018-07-12T02:51:30.247Z,23.50
2018-07-12T02:53:57.614Z,22.83
2018-07-12T02:56:25.008Z,23.83
2018-07-12T02:58:52.450Z,25.03
2018-07-12T03:01:19.855Z,28.00
2018-07-12T03:03:47.221Z,24.27
2018-07-12T03:06:14.641Z,23.60
2018-07-12T03:08:42.031Z,26.23
2018-07-12T03:11:09.554Z,27.70
2018-07-12T03:13:36.935Z,26.93
2018-07-12T03:16:04.324Z,24.10
2018-07-12T03:18:31.707Z,24.13
2018-07-12T03:20:59.101Z,25.40
2018-07-12T03:23:26.482Z,25.10
2018-07-12T03:25:53.901Z,25.93
2018-07-12T03:28:21.265Z,23.17
2018-07-12T03:30:48.663Z,27.97
2018-07-12T03:33:16.107Z,23.83
2018-07-12T03:35:43.479Z,25.30
2018-07-12T03:38:10.901Z,27.67
2018-07-12T03:40:38.351Z,25.03
2018-07-12T03:43:05.720Z,24.77
2018-07-12T03:45:33.366Z,28.00
2018-07-12T03:48:00.783Z,25.07
2018-07-12T03:50:28.194Z,27.30
2018-07-12T03:52:55.624Z,29.47
2018-07-12T03:55:22.986Z,24.43
2018-07-12T03:57:50.378Z,32.50
2018-07-12T04:00:18.009Z,29.47
2018-07-12T04:02:45.416Z,28.87
2018-07-12T04:05:12.813Z,29.93
2018-07-12T04:07:40.235Z,27.97
2018-07-12T04:10:07.868Z,32.10
2018-07-12T04:12:35.270Z,30.37
2018-07-12T04:15:02.658Z,30.60
2018-07-12T04:17:30.958Z,27.10
2018-07-12T04:19:59.604Z,28.47
2018-07-12T04:22:28.259Z,31.67
2018-07-12T04:24:55.631Z,27.87
2018-07-12T04:27:23.355Z,28.73
2018-07-12T04:29:51.986Z,30.77
2018-07-12T04:32:19.469Z,27.23
2018-07-12T04:34:47.996Z,29.63
2018-07-12T04:37:15.439Z,25.93
2018-07-12T04:39:42.995Z,24.53
2018-07-12T04:42:10.409Z,27.27
2018-07-12T04:44:37.810Z,29.93
2018-07-12T04:47:05.186Z,23.47
2018-07-12T04:49:32.601Z,26.83
2018-07-12T04:52:00.682Z,21.77
2018-07-12T04:54:28.623Z,27.50
2018-07-12T04:56:55.988Z,27.17
2018-07-12T04:59:23.403Z,24.93
2018-07-12T05:01:50.762Z,29.70
2018-07-12T05:04:18.162Z,34.30
2018-07-12T05:06:45.530Z,31.70
2018-07-12T05:09:12.937Z,33.63
2018-07-12T05:11:40.593Z,24.20
2018-07-12T05:14:08.031Z,26.77
2018-07-12T05:16:35.389Z,27.77
2018-07-12T05:19:02.788Z,27.00
2018-07-12T05:21:30.158Z,29.73
2018-07-12T05:23:57.810Z,30.10
2018-07-12T05:26:25.187Z,24.83
2018-07-12T05:28:52.591Z,28.47
2018-07-12T05:31:20.007Z,25.07
2018-07-12T05:33:47.410Z,27.03
2018-07-12T05:36:22.615Z,27.37
2018-07-12T05:38:51.101Z,30.13
2018-07-12T05:41:19.686Z,29.57
2018-07-12T05:43:48.166Z,26.13
2018-07-12T05:46:16.745Z,28.53
2018-07-12T05:48:45.251Z,30.30
2018-07-12T05:51:13.779Z,31.80
2018-07-12T05:53:42.271Z,33.83
2018-07-12T05:56:10.818Z,33.77
2018-07-12T05:58:39.307Z,34.60
2018-07-12T06:01:17.982Z,37.50
2018-07-12T06:03:46.483Z,34.90
2018-07-12T06:06:14.996Z,33.37
2018-07-12T06:08:43.503Z,36.10
2018-07-12T06:11:12.039Z,27.20
2018-07-12T06:13:40.532Z,27.07
2018-07-12T06:16:09.064Z,32.63
2018-07-12T06:18:37.578Z,28.27
2018-07-12T06:21:06.138Z,32.90
2018-07-12T06:23:34.643Z,30.60
2018-07-12T06:26:03.176Z,27.13
2018-07-12T06:28:31.677Z,32.57
2018-07-12T06:31:00.490Z,31.10
2018-07-12T06:33:29.110Z,31.73
2018-07-12T06:35:57.750Z,31.70
2018-07-12T06:38:26.293Z,28.03
2018-07-12T06:40:54.967Z,30.30
2018-07-12T06:43:23.477Z,33.27
2018-07-12T06:45:52.021Z,31.47
2018-07-12T06:48:20.518Z,22.33
2018-07-12T06:50:49.003Z,27.00
2018-07-12T06:53:17.524Z,20.53
2018-07-12T06:55:45.734Z,21.27
2018-07-12T06:58:18.230Z,21.53
2018-07-12T07:00:46.703Z,20.40
2018-07-12T07:03:16.135Z,21.00
2018-07-12T07:05:44.623Z,25.03
2018-07-12T07:08:13.157Z,23.27
2018-07-12T07:10:41.631Z,22.47
2018-07-12T07:13:10.276Z,25.23
2018-07-12T07:15:38.791Z,24.23
2018-07-12T07:18:07.356Z,24.60
2018-07-12T07:20:35.830Z,18.77
2018-07-12T07:23:04.375Z,18.50
2018-07-12T07:25:32.939Z,18.20
2018-07-12T07:28:01.506Z,20.77
2018-07-12T07:30:30.023Z,15.53
2018-07-12T07:32:58.292Z,13.87
2018-07-12T07:35:27.005Z,16.30
2018-07-12T07:37:55.564Z,21.70
2018-07-12T07:40:24.057Z,14.60
2018-07-12T07:42:52.644Z,11.57
2018-07-12T07:45:21.147Z,14.87
2018-07-12T07:47:49.318Z,18.90
2018-07-12T07:50:17.491Z,14.43
2018-07-12T07:52:46.078Z,14.20
2018-07-12T07:55:14.554Z,12.80
2018-07-12T07:57:43.152Z,10.40
2018-07-12T08:00:11.661Z,9.87
2018-07-12T08:02:40.196Z,9.60
2018-07-12T08:05:08.723Z,8.23
2018-07-12T08:07:36.935Z,8.37
2018-07-12T08:10:05.446Z,9.00
2018-07-12T08:12:33.959Z,9.77
2018-07-12T08:15:02.455Z,8.53
2018-07-12T08:17:30.947Z,8.93
2018-07-12T08:19:59.211Z,8.50
2018-07-12T08:22:27.687Z,9.97
2018-07-12T08:24:56.176Z,9.33
2018-07-12T08:27:24.615Z,9.80
2018-07-12T08:29:53.162Z,9.80
2018-07-12T08:32:21.648Z,11.57
2018-07-12T08:34:50.217Z,9.17
2018-07-12T08:37:18.707Z,7.53
2018-07-12T08:39:47.191Z,6.93
2018-07-12T08:42:15.709Z,9.27
2018-07-12T08:44:43.877Z,7.13
2018-07-12T08:47:12.177Z,6.60
2018-07-12T08:49:40.705Z,6.43
2018-07-12T08:52:09.329Z,6.20
2018-07-12T08:54:37.901Z,6.13
2018-07-12T08:57:06.423Z,7.13
2018-07-12T08:59:34.901Z,6.73
2018-07-12T09:02:03.429Z,5.97
2018-07-12T09:07:07.107Z,7.17
2018-07-12T09:09:35.273Z,5.47
2018-07-12T09:12:03.789Z,6.50
2018-07-12T09:14:32.259Z,5.53
2018-07-12T09:17:00.450Z,5.17
2018-07-12T09:19:28.903Z,7.53
2018-07-12T09:21:57.426Z,4.93
2018-07-12T09:24:25.907Z,4.73
2018-07-12T09:26:54.378Z,5.13
2018-07-12T09:29:22.591Z,4.00
2018-07-12T09:31:51.088Z,5.43
2018-07-12T09:34:19.625Z,3.83
2018-07-12T09:36:47.794Z,4.03
2018-07-12T09:39:17.064Z,3.67
2018-07-12T09:41:45.588Z,3.87
2018-07-12T09:44:14.106Z,3.47
2018-07-12T09:46:42.601Z,3.43
2018-07-12T09:49:11.220Z,5.30
2018-07-12T09:51:39.739Z,8.20
2018-07-12T09:54:07.982Z,4.17
2018-07-12T09:56:47.806Z,3.60
2018-07-12T09:59:17.007Z,5.00
2018-07-12T10:01:50.820Z,4.53
2018-07-12T10:04:19.392Z,4.67
2018-07-12T10:06:55.968Z,5.73
2018-07-12T10:09:29.894Z,6.20
2018-07-12T10:12:03.584Z,5.07
2018-07-12T10:14:37.575Z,4.27
2018-07-12T10:17:12.982Z,4.40
2018-07-12T10:19:42.703Z,4.90
2018-07-12T10:22:12.135Z,4.17
2018-07-12T10:24:40.494Z,4.13
2018-07-12T10:27:08.977Z,3.60
2018-07-12T10:29:37.491Z,4.80
2018-07-12T10:32:06.055Z,5.90
2018-07-12T10:34:34.653Z,4.30
2018-07-12T10:37:02.864Z,4.33
2018-07-12T10:39:31.395Z,5.47
2018-07-12T10:41:59.968Z,4.33
2018-07-12T10:44:28.507Z,4.03
2018-07-12T10:46:57.031Z,4.50
2018-07-12T10:49:25.605Z,4.80
2018-07-12T10:51:54.466Z,5.37
2018-07-12T10:54:22.993Z,6.27
2018-07-12T10:56:51.501Z,4.93
2018-07-12T10:59:20.102Z,4.97
2018-07-12T11:01:48.675Z,8.57
2018-07-12T11:04:17.213Z,3.60
2018-07-12T11:06:45.900Z,7.13
2018-07-12T11:09:14.440Z,11.83
2018-07-12T11:11:42.958Z,5.77
2018-07-12T11:14:11.449Z,8.43
2018-07-12T11:16:39.618Z,4.20
2018-07-12T11:19:08.174Z,4.27
2018-07-12T11:21:36.731Z,4.93
2018-07-12T11:24:05.294Z,8.43
2018-07-12T11:26:33.557Z,3.83
2018-07-12T11:29:01.773Z,4.07
2018-07-12T11:31:30.295Z,4.97
2018-07-12T11:33:58.769Z,3.73
2018-07-12T11:36:27.310Z,4.20
2018-07-12T11:38:55.806Z,4.70
2018-07-12T11:41:24.286Z,6.07
2018-07-12T11:43:52.780Z,3.87
2018-07-12T11:46:21.294Z,4.00
2018-07-12T11:48:49.839Z,5.23
2018-07-12T11:51:19.338Z,5.43
2018-07-12T11:53:47.879Z,7.67
2018-07-12T11:56:16.378Z,3.50
2018-07-12T11:58:45.024Z,3.43
2018-07-12T12:01:14.133Z,4.17
2018-07-12T12:03:42.660Z,4.53
2018-07-12T12:06:11.199Z,4.03
2018-07-12T12:08:39.700Z,3.80
2018-07-12T12:11:08.273Z,4.43
2018-07-12T12:13:39.238Z,3.80
2018-07-12T12:16:08.016Z,4.23
2018-07-12T12:18:36.591Z,4.67
2018-07-12T12:21:05.236Z,6.50
2018-07-12T12:23:33.916Z,4.23
2018-07-12T12:26:02.558Z,4.60
2018-07-12T12:28:31.863Z,5.00
2018-07-12T12:31:00.484Z,4.20
2018-07-12T12:33:30.195Z,5.30
2018-07-12T12:35:58.921Z,5.47
2018-07-12T12:38:27.586Z,4.50
2018-07-12T12:40:56.277Z,3.90
2018-07-12T12:43:25.006Z,7.80
2018-07-12T12:45:53.894Z,9.57
2018-07-12T12:48:22.511Z,4.93
2018-07-12T12:50:51.271Z,4.87
2018-07-12T12:53:19.850Z,5.33
2018-07-12T12:55:48.440Z,5.07
2018-07-12T12:58:17.529Z,4.50
2018-07-12T13:00:46.070Z,3.70
2018-07-12T13:03:14.605Z,4.23
2018-07-12T13:05:43.307Z,3.87
2018-07-12T13:08:11.990Z,4.40
2018-07-12T13:10:41.415Z,5.17
2018-07-12T13:13:09.606Z,5.13
2018-07-12T13:15:37.817Z,3.83
2018-07-12T13:18:06.418Z,6.93
2018-07-12T13:20:34.930Z,3.77
2018-07-12T13:23:03.459Z,4.73
2018-07-12T13:25:31.996Z,4.00
2018-07-12T13:28:00.573Z,5.90
2018-07-12T13:30:29.134Z,4.40
2018-07-12T13:32:57.969Z,4.10
2018-07-12T13:35:26.538Z,5.07
2018-07-12T13:37:55.063Z,4.10
2018-07-12T13:40:23.603Z,4.63
2018-07-12T13:42:52.088Z,7.43
2018-07-12T13:45:20.644Z,5.60
2018-07-12T13:47:49.169Z,5.67
2018-07-12T13:50:17.691Z,5.03
2018-07-12T13:52:46.906Z,4.37
2018-07-12T13:55:15.592Z,4.23
2018-07-12T13:57:44.113Z,5.50
2018-07-12T14:00:12.647Z,3.63
2018-07-12T14:02:41.237Z,3.90
2018-07-12T14:05:09.749Z,3.17
2018-07-12T14:07:37.957Z,3.80
2018-07-12T14:10:06.680Z,4.87
2018-07-12T14:12:35.228Z,8.83
2018-07-12T14:15:03.757Z,4.73
2018-07-12T14:17:33.086Z,7.80
2018-07-12T14:20:01.643Z,3.57
2018-07-12T14:22:30.164Z,4.20
2018-07-12T14:24:58.656Z,3.87
2018-07-12T14:27:27.212Z,3.63
2018-07-12T14:29:55.769Z,4.10
2018-07-12T14:32:24.283Z,4.33
2018-07-12T14:34:52.872Z,3.70
2018-07-12T14:37:21.389Z,3.83
2018-07-12T14:39:49.951Z,3.23
2018-07-12T14:42:18.430Z,3.30
2018-07-12T14:44:47.009Z,3.43
2018-07-12T14:47:15.526Z,5.37
2018-07-12T14:49:44.085Z,4.43
2018-07-12T14:52:12.699Z,7.03
2018-07-12T14:54:41.181Z,5.03
2018-07-12T14:57:09.707Z,6.30
2018-07-12T14:59:38.735Z,5.13
2018-07-12T15:02:07.373Z,6.43
2018-07-12T15:04:35.904Z,4.43
2018-07-12T15:07:04.953Z,3.73
2018-07-12T15:09:33.490Z,4.97
2018-07-12T15:12:01.999Z,4.93
2018-07-12T15:14:30.503Z,3.63
2018-07-12T15:16:58.998Z,5.93
2018-07-12T15:19:27.593Z,4.37
2018-07-12T15:21:56.146Z,4.03
2018-07-12T15:24:25.008Z,5.40
2018-07-12T15:26:53.475Z,3.57
2018-07-12T15:29:22.043Z,4.63
2018-07-12T15:31:50.565Z,3.90
2018-07-12T15:34:19.134Z,4.43
2018-07-12T15:36:47.345Z,4.47
2018-07-12T15:39:15.901Z,8.73
2018-07-12T15:41:44.623Z,5.03
2018-07-12T15:44:13.149Z,7.87
2018-07-12T15:46:41.670Z,4.43
2018-07-12T15:49:10.202Z,6.00
2018-07-12T15:51:38.830Z,4.47
2018-07-12T15:54:07.381Z,6.77
2018-07-12T15:56:35.965Z,4.10
2018-07-12T15:59:04.511Z,4.17
2018-07-12T16:01:33.079Z,5.90
2018-07-12T16:04:01.636Z,5.83
2018-07-12T16:06:30.263Z,9.97
2018-07-12T16:08:58.808Z,4.97
2018-07-12T16:11:27.332Z,6.93
2018-07-12T16:13:55.534Z,4.00
2018-07-12T16:16:24.041Z,5.87
2018-07-12T16:18:52.603Z,5.33
2018-07-12T16:21:21.180Z,5.50
2018-07-12T16:23:49.652Z,7.13
2018-07-12T16:26:18.233Z,6.07
2018-07-12T16:28:46.728Z,3.73
2018-07-12T16:31:14.920Z,3.70
2018-07-12T16:33:43.292Z,4.83
2018-07-12T16:36:11.492Z,7.30
2018-07-12T16:38:40.023Z,4.00
2018-07-12T16:41:08.731Z,6.63
2018-07-12T16:43:37.241Z,3.50
2018-07-12T16:46:05.459Z,4.60
2018-07-12T16:48:34.019Z,6.77
2018-07-12T16:51:02.574Z,8.77
2018-07-12T16:53:31.110Z,4.33
2018-07-12T16:56:00.509Z,4.10
2018-07-12T16:58:29.093Z,5.53
2018-07-12T17:00:57.596Z,4.80
2018-07-12T17:03:26.406Z,6.57
2018-07-12T17:05:54.959Z,6.63
2018-07-12T17:08:23.546Z,47.40
2018-07-12T17:10:52.057Z,4.30
2018-07-12T17:13:20.600Z,6.23
2018-07-12T17:15:48.826Z,7.40
2018-07-12T17:18:19.758Z,4.50
2018-07-12T17:20:48.337Z,3.80
2018-07-12T17:23:16.913Z,4.47
2018-07-12T17:25:45.494Z,5.00
2018-07-12T17:28:14.038Z,5.17
2018-07-12T17:30:42.727Z,6.63
2018-07-12T17:33:11.429Z,8.83
2018-07-12T17:35:40.027Z,7.27
2018-07-12T17:38:08.519Z,3.77
2018-07-12T17:40:37.034Z,5.40
2018-07-12T17:43:05.597Z,5.37
2018-07-12T17:45:34.400Z,7.33
2018-07-12T17:48:02.876Z,10.93
2018-07-12T17:50:31.571Z,6.37
2018-07-12T17:53:00.287Z,5.67
2018-07-12T17:55:29.054Z,9.37
2018-07-12T17:57:57.275Z,5.27
2018-07-12T18:00:25.814Z,7.27
2018-07-12T18:02:54.697Z,5.90
2018-07-12T18:05:23.284Z,9.40
2018-07-12T18:07:51.727Z,6.57
2018-07-12T18:10:20.376Z,7.93
2018-07-12T18:12:49.321Z,10.07
2018-07-12T18:15:17.871Z,7.47
2018-07-12T18:17:47.295Z,7.07
2018-07-12T18:20:15.846Z,4.10
2018-07-12T18:22:44.386Z,7.83
2018-07-12T18:25:13.123Z,8.97
2018-07-12T18:27:41.633Z,11.53
2018-07-12T18:30:10.166Z,7.07
2018-07-12T18:32:39.675Z,6.03
2018-07-12T18:35:08.321Z,5.93
2018-07-12T18:37:37.178Z,8.93
2018-07-12T18:40:05.734Z,8.67
2018-07-12T18:42:35.097Z,8.40
2018-07-12T18:45:03.250Z,7.30
2018-07-12T18:47:31.734Z,6.33
2018-07-12T18:50:00.252Z,13.17
2018-07-12T18:52:28.891Z,6.80
2018-07-12T18:54:57.331Z,10.40
2018-07-12T18:57:25.870Z,14.63
2018-07-12T18:59:54.431Z,11.70
2018-07-12T19:02:22.917Z,8.57
2018-07-12T19:04:51.446Z,8.93
2018-07-12T19:07:19.961Z,13.63
2018-07-12T19:09:48.947Z,19.27
2018-07-12T19:12:17.760Z,14.07
2018-07-12T19:14:46.130Z,14.63
2018-07-12T19:17:14.271Z,14.83
2018-07-12T19:19:42.785Z,14.60
2018-07-12T19:22:10.934Z,11.67
2018-07-12T19:24:40.184Z,10.50
2018-07-12T19:27:08.685Z,11.30
2018-07-12T19:29:37.183Z,10.03
2018-07-12T19:32:08.084Z,16.73
2018-07-12T19:34:36.572Z,15.50
2018-07-12T19:37:05.179Z,11.37
2018-07-12T19:39:33.625Z,18.93
2018-07-12T19:42:02.093Z,9.90
2018-07-12T19:44:30.687Z,15.20
2018-07-12T19:46:59.215Z,12.53
2018-07-12T19:49:27.760Z,9.80
2018-07-12T19:51:57.084Z,12.73
2018-07-12T19:54:27.912Z,14.00
2018-07-12T19:56:57.586Z,19.33
2018-07-12T19:59:26.546Z,14.77
2018-07-12T20:01:55.276Z,15.47
2018-07-12T20:04:24.879Z,14.87
2018-07-12T20:06:53.605Z,16.13
2018-07-12T20:09:22.226Z,14.10
2018-07-12T20:11:51.122Z,15.43
2018-07-12T20:14:19.841Z,14.30
2018-07-12T20:16:48.451Z,16.63
2018-07-12T20:19:17.019Z,13.43
2018-07-12T20:21:45.530Z,12.70
2018-07-12T20:24:14.070Z,15.73
2018-07-12T20:26:42.715Z,18.20
2018-07-12T20:29:11.336Z,15.60
2018-07-12T20:31:39.731Z,18.20
2018-07-12T20:34:09.736Z,14.63
2018-07-12T20:36:37.954Z,15.77
2018-07-12T20:39:07.681Z,11.80
2018-07-12T20:41:36.208Z,16.07
2018-07-12T20:44:04.756Z,17.73
2018-07-12T20:46:33.282Z,17.60
2018-07-12T20:49:01.787Z,12.53
2018-07-12T20:51:30.106Z,16.47
2018-07-12T20:53:58.695Z,16.90
2018-07-12T20:56:27.218Z,15.80
2018-07-12T20:58:55.769Z,19.43
2018-07-12T21:01:24.329Z,17.83
2018-07-12T21:03:53.655Z,14.37
2018-07-12T21:06:22.242Z,18.43
2018-07-12T21:08:50.756Z,19.33
2018-07-12T21:11:19.254Z,14.67
2018-07-12T21:13:47.767Z,15.70
2018-07-12T21:16:15.945Z,20.00
2018-07-12T21:18:44.131Z,19.77
2018-07-12T21:21:12.595Z,14.97
2018-07-12T21:23:41.133Z,17.57
2018-07-12T21:26:09.574Z,14.20
2018-07-12T21:28:37.798Z,16.57
2018-07-12T21:31:06.286Z,16.27
2018-07-12T21:33:35.064Z,19.30
2018-07-12T21:36:03.458Z,19.37
2018-07-12T21:38:32.023Z,17.17
2018-07-12T21:41:00.485Z,17.90
2018-07-12T21:43:28.952Z,18.73
2018-07-12T21:45:57.511Z,17.13
2018-07-12T21:48:26.096Z,21.13
2018-07-12T21:50:54.613Z,19.60
2018-07-12T21:53:23.237Z,15.27
2018-07-12T21:55:51.415Z,18.13
2018-07-12T21:58:19.951Z,16.90
2018-07-12T22:00:48.461Z,18.50
2018-07-12T22:03:19.506Z,17.70
2018-07-12T22:05:48.475Z,25.43
2018-07-12T22:08:25.535Z,17.23
2018-07-12T22:10:57.471Z,17.30
2018-07-12T22:13:26.680Z,19.53
2018-07-12T22:15:56.749Z,21.33
2018-07-12T22:18:25.284Z,16.27
2018-07-12T22:20:53.742Z,19.77
2018-07-12T22:23:21.977Z,16.03
2018-07-12T22:25:50.412Z,17.50
2018-07-12T22:28:18.641Z,23.90
2018-07-12T22:30:47.272Z,20.03
2018-07-12T22:33:15.878Z,16.80
2018-07-12T22:35:44.503Z,22.00
2018-07-12T22:38:13.014Z,20.60
2018-07-12T22:40:41.546Z,21.90
2018-07-12T22:43:10.041Z,19.90
2018-07-12T22:45:39.255Z,25.17
2018-07-12T22:48:07.881Z,26.23
2018-07-12T22:50:36.326Z,17.37
2018-07-12T22:53:04.935Z,21.03
2018-07-12T22:55:33.412Z,19.23
2018-07-12T22:58:01.996Z,14.93
2018-07-12T23:00:30.499Z,18.97
2018-07-12T23:02:58.980Z,21.77
2018-07-12T23:05:27.431Z,22.63
2018-07-12T23:07:56.053Z,16.63
2018-07-12T23:10:24.517Z,16.20
2018-07-12T23:12:53.052Z,15.57
2018-07-12T23:15:21.541Z,17.00
2018-07-12T23:17:50.024Z,24.33
2018-07-12T23:20:18.485Z,16.70
2018-07-12T23:22:47.019Z,18.00
2018-07-12T23:25:15.169Z,16.30
2018-07-12T23:27:43.673Z,19.77
2018-07-12T23:30:12.133Z,21.53
2018-07-12T23:32:40.658Z,19.20
2018-07-12T23:35:08.911Z,17.03
2018-07-12T23:37:37.415Z,20.03
2018-07-12T23:40:05.847Z,20.73
2018-07-12T23:42:34.370Z,17.90
2018-07-12T23:45:02.838Z,16.57
2018-07-12T23:47:31.320Z,17.70
2018-07-12T23:49:59.778Z,20.47
2018-07-12T23:52:27.941Z,22.87
2018-07-12T23:54:56.102Z,18.40
2018-07-12T23:57:24.610Z,17.03
2018-07-12T23:59:53.105Z,21.43
